Time;durP1;ratioP1;P1;durP2;ratioP2;P2;SDS_P1;SDS_P2;PMS_P1;PMS_P2;Temp;Humidity;BMP_temperature;BMP_pressure;BME280_temperature;BME280_humidity;BME280_pressure;Samples;Min_cycle;Max_cycle;Signal;HPM_P1;HPM_P2
2022/11/18 00:00:51;;;;;;;2.22;1.67;;;0.30;99.90;-0.60;99634;;;;562539;249;35305;-80
2022/11/18 00:03:19;;;;;;;1.57;1.47;;;0.40;99.90;-0.40;99636;;;;567362;249;24149;-78
2022/11/18 00:05:53;;;;;;;3.13;1.40;;;0.50;99.90;-0.30;99638;;;;576211;246;24091;-81
2022/11/18 00:08:21;;;;;;;1.10;1.10;;;0.60;99.90;-0.30;99634;;;;567363;249;24108;-78
2022/11/18 00:10:49;;;;;;;3.10;1.83;;;0.70;99.90;-0.20;99637;;;;567652;249;24133;-78
2022/11/18 00:16:03;;;;;;;1.93;1.53;;;0.80;99.90;-0.10;99634;;;;567863;249;24094;-78
2022/11/18 00:18:34;;;;;;;2.00;1.33;;;0.80;99.90;-0.10;99635;;;;575901;249;24100;-79
2022/11/18 00:21:02;;;;;;;1.50;1.40;;;0.90;99.90;-0.10;99624;;;;567439;249;24198;-81
2022/11/18 00:23:34;;;;;;;1.13;1.13;;;0.90;99.90;0.00;99620;;;;567518;249;24098;-78
2022/11/18 00:26:07;;;;;;;1.30;1.20;;;0.90;99.90;0.00;99635;;;;567287;249;25222;-78
2022/11/18 00:28:38;;;;;;;1.20;1.20;;;0.90;99.90;0.00;99611;;;;567489;249;24133;-79
2022/11/18 00:31:06;;;;;;;1.50;1.40;;;1.00;99.90;0.00;99616;;;;569008;248;24093;-80
2022/11/18 00:33:35;;;;;;;1.17;1.17;;;1.00;99.90;0.00;99612;;;;568828;248;24182;-82
2022/11/18 00:36:05;;;;;;;1.30;1.20;;;1.00;99.90;0.00;99611;;;;568714;249;24099;-77
2022/11/18 00:38:33;;;;;;;4.40;1.27;;;0.90;99.90;-0.10;99599;;;;576984;249;24110;-79
2022/11/18 00:41:06;;;;;;;2.60;1.20;;;0.90;99.90;-0.20;99601;;;;568426;249;24136;-79
2022/11/18 00:43:37;;;;;;;1.00;1.00;;;0.80;99.90;-0.20;99600;;;;568316;249;24086;-78
2022/11/18 00:46:03;;;;;;;1.27;1.27;;;0.80;99.90;-0.20;99593;;;;568292;249;24201;-78
2022/11/18 00:48:34;;;;;;;1.20;1.10;;;0.70;99.90;-0.30;99583;;;;567914;249;24094;-79
2022/11/18 00:50:59;;;;;;;1.53;1.10;;;0.70;99.90;-0.30;99587;;;;576125;249;24156;-77
2022/11/18 00:53:27;;;;;;;1.33;1.23;;;0.60;99.90;-0.40;99585;;;;567070;249;24151;-80
2022/11/18 00:55:55;;;;;;;1.50;1.40;;;0.60;99.90;-0.50;99589;;;;567862;249;24082;-79
2022/11/18 00:58:22;;;;;;;1.63;1.53;;;0.50;99.90;-0.50;99582;;;;576394;247;24086;-77
2022/11/18 01:00:54;;;;;;;1.73;1.53;;;0.50;99.90;-0.50;99577;;;;576575;247;24141;-81
2022/11/18 01:03:18;;;;;;;1.40;1.30;;;0.50;99.90;-0.60;99587;;;;567447;249;24107;-77
2022/11/18 01:05:50;;;;;;;1.60;1.50;;;0.40;99.90;-0.60;99573;;;;567707;249;24099;-78
2022/11/18 01:08:18;;;;;;;2.10;1.80;;;0.40;99.90;-0.60;99580;;;;567337;249;24107;-88
2022/11/18 01:10:43;;;;;;;1.50;1.40;;;0.40;99.90;-0.60;99579;;;;575705;249;24144;-81
2022/11/18 01:13:21;;;;;;;1.40;1.40;;;0.40;99.90;-0.60;99577;;;;576199;247;24102;-77
2022/11/18 01:15:54;;;;;;;2.10;1.67;;;0.40;99.90;-0.60;99578;;;;567426;249;24142;-78
2022/11/18 01:18:25;;;;;;;2.23;2.03;;;0.40;99.90;-0.70;99584;;;;567740;249;24108;-77
2022/11/18 01:20:54;;;;;;;1.93;1.83;;;0.30;99.90;-0.70;99579;;;;567861;249;24108;-77
2022/11/18 01:23:22;;;;;;;1.97;1.87;;;0.30;99.90;-0.70;99580;;;;567563;249;24108;-80
2022/11/18 01:25:50;;;;;;;1.77;1.67;;;0.30;99.90;-0.70;99571;;;;576445;248;24152;-77
2022/11/18 01:28:21;;;;;;;3.00;2.73;;;0.30;99.90;-0.70;99578;;;;576401;248;24091;-77
2022/11/18 01:30:47;;;;;;;3.80;2.73;;;0.30;99.90;-0.60;99582;;;;567438;249;24120;-78
2022/11/18 01:33:14;;;;;;;2.47;2.27;;;0.30;99.90;-0.60;99581;;;;567970;249;24155;-83
2022/11/18 01:35:46;;;;;;;3.03;2.10;;;0.40;99.90;-0.60;99581;;;;576608;248;24074;-82
2022/11/18 01:38:14;;;;;;;2.67;2.47;;;0.40;99.90;-0.70;99582;;;;567596;249;24111;-79
2022/11/18 01:40:43;;;;;;;3.43;2.57;;;0.40;99.90;-0.70;99581;;;;567785;247;24083;-78
2022/11/18 01:43:16;;;;;;;2.80;2.60;;;0.40;99.90;-0.70;99574;;;;577469;248;24099;-77
2022/11/18 01:45:42;;;;;;;4.87;3.00;;;0.40;99.90;-0.70;99577;;;;563632;249;35368;-78
2022/11/18 01:48:09;;;;;;;4.43;2.67;;;0.40;99.90;-0.70;99580;;;;558774;253;24139;-79
2022/11/18 01:50:37;;;;;;;3.50;2.80;;;0.30;99.90;-0.80;99576;;;;556266;254;24135;-82
2022/11/18 01:53:08;;;;;;;4.17;3.00;;;0.20;99.90;-0.90;99573;;;;576435;249;25440;-80
2022/11/18 01:55:40;;;;;;;3.60;3.30;;;0.20;99.90;-1.00;99564;;;;576393;249;24098;-81
2022/11/18 01:58:16;;;;;;;3.97;3.33;;;0.10;99.90;-1.20;99560;;;;567719;249;24099;-82
2022/11/18 02:00:44;;;;;;;3.30;3.00;;;-0.10;99.90;-1.30;99565;;;;567056;249;24098;-76
2022/11/18 02:03:12;;;;;;;5.03;3.10;;;-0.20;99.90;-1.40;99562;;;;576556;247;24095;-77
2022/11/18 02:05:41;;;;;;;6.83;3.40;;;-0.40;99.90;-1.50;99566;;;;576410;247;24081;-77
2022/11/18 02:08:12;;;;;;;4.27;3.80;;;-0.50;99.90;-1.60;99555;;;;567872;249;24074;-76
2022/11/18 02:10:36;;;;;;;3.97;3.33;;;-0.50;99.90;-1.70;99552;;;;567503;249;24135;-78
2022/11/18 02:13:07;;;;;;;3.73;3.43;;;-0.60;99.90;-1.70;99554;;;;576295;247;24116;-77
2022/11/18 02:15:41;;;;;;;4.17;3.13;;;-0.70;99.90;-1.80;99560;;;;567585;249;24096;-77
2022/11/18 02:18:30;;;;;;;4.20;3.80;;;-0.80;99.90;-1.80;99560;;;;563109;249;24176;-78
2022/11/18 02:21:29;;;;;;;4.93;4.43;;;-0.80;99.90;-1.90;99552;;;;574420;249;24113;-77
2022/11/18 02:24:36;;;;;;;4.30;3.90;;;-0.80;99.90;-1.80;99562;;;;576122;247;24097;-78
2022/11/18 02:27:53;;;;;;;4.83;4.10;;;-0.80;99.90;-1.80;99564;;;;559504;255;24148;-77
2022/11/18 02:30:22;;;;;;;4.60;4.07;;;-0.60;99.90;-1.60;99565;;;;550344;260;24195;-77
2022/11/18 02:32:53;;;;;;;4.23;3.80;;;-0.60;99.90;-1.60;99573;;;;560216;253;24140;-78
2022/11/18 02:35:32;;;;;;;5.87;4.07;;;-0.60;99.90;-1.50;99572;;;;564908;253;24115;-77
2022/11/18 02:38:09;;;;;;;5.80;4.43;;;-0.50;99.90;-1.40;99574;;;;557116;254;24158;-77
2022/11/18 02:40:37;;;;;;;4.47;4.03;;;-0.40;99.90;-1.40;99565;;;;559323;248;24137;-81
2022/11/18 02:43:08;;;;;;;5.20;4.70;;;-0.30;99.90;-1.30;99565;;;;576648;247;35363;-82
2022/11/18 02:45:39;;;;;;;4.93;4.00;;;-0.30;99.90;-1.30;99581;;;;572488;247;24255;-79
2022/11/18 02:48:12;;;;;;;8.13;4.43;;;-0.20;99.90;-1.20;99577;;;;581884;247;24161;-78
2022/11/18 02:50:36;;;;;;;5.47;4.70;;;-0.20;99.90;-1.20;99567;;;;573229;247;24131;-80
2022/11/18 02:53:07;;;;;;;6.33;5.10;;;-0.10;99.90;-1.10;99574;;;;583456;245;24088;-79
2022/11/18 02:55:32;;;;;;;8.37;5.00;;;-0.10;99.90;-1.10;99568;;;;579596;246;24098;-79
2022/11/18 02:58:00;;;;;;;8.50;4.90;;;-0.10;99.90;-1.10;99573;;;;583569;246;24085;-79
2022/11/18 03:00:27;;;;;;;6.60;4.70;;;0.00;99.90;-1.00;99588;;;;583632;242;24094;-81
2022/11/18 03:02:57;;;;;;;4.43;3.90;;;0.00;99.90;-1.00;99578;;;;583435;246;24047;-81
2022/11/18 03:05:36;;;;;;;5.73;4.97;;;0.00;99.90;-1.00;99576;;;;583194;246;24068;-80
2022/11/18 03:08:07;;;;;;;6.67;5.37;;;0.10;99.90;-0.90;99579;;;;575767;246;24132;-82
2022/11/18 03:10:37;;;;;;;5.70;5.20;;;0.10;99.90;-1.00;99585;;;;582372;247;24106;-82
2022/11/18 03:13:05;;;;;;;4.93;4.43;;;0.10;99.90;-0.90;99578;;;;581951;243;24092;-80
2022/11/18 03:15:39;;;;;;;6.77;5.37;;;0.10;99.90;-1.00;99590;;;;582148;247;24095;-80
2022/11/18 03:18:16;;;;;;;5.47;4.77;;;0.10;99.90;-0.90;99595;;;;581872;247;24124;-83
2022/11/18 03:20:55;;;;;;;7.13;5.17;;;0.10;99.90;-0.90;99592;;;;581733;247;24112;-82
2022/11/18 03:23:35;;;;;;;6.43;5.50;;;0.10;99.90;-0.90;99593;;;;579272;244;24081;-78
2022/11/18 03:26:22;;;;;;;8.13;5.50;;;0.10;99.90;-0.90;99595;;;;578866;247;24091;-78
2022/11/18 03:28:50;;;;;;;5.67;4.80;;;0.20;99.90;-0.90;99585;;;;581199;244;24085;-79
2022/11/18 03:31:24;;;;;;;6.53;4.93;;;0.20;99.90;-0.90;99592;;;;572565;247;24078;-78
2022/11/18 03:33:58;;;;;;;7.87;5.10;;;0.10;99.90;-0.90;99588;;;;572667;247;24092;-79
2022/11/18 03:36:26;;;;;;;6.60;5.37;;;0.20;99.90;-0.80;99589;;;;580283;247;24096;-78
2022/11/18 03:38:54;;;;;;;6.30;4.97;;;0.20;99.90;-0.80;99595;;;;572611;247;24088;-79
2022/11/18 03:41:22;;;;;;;5.30;4.80;;;0.20;99.90;-0.80;99606;;;;577055;247;24115;-80
2022/11/18 03:43:57;;;;;;;6.77;5.50;;;0.20;99.90;-0.80;99605;;;;576982;247;24169;-82
2022/11/18 03:46:29;;;;;;;6.70;5.63;;;0.20;99.90;-0.80;99606;;;;580354;245;24098;-80
2022/11/18 03:48:57;;;;;;;7.47;5.30;;;0.20;99.90;-0.80;99604;;;;580306;245;24107;-79
2022/11/18 03:51:39;;;;;;;5.60;5.10;;;0.30;99.90;-0.80;99595;;;;581132;247;24073;-79
2022/11/18 03:54:10;;;;;;;7.17;5.20;;;0.20;99.90;-0.80;99600;;;;572786;247;24068;-80
2022/11/18 03:56:51;;;;;;;6.07;5.20;;;0.20;99.90;-0.80;99602;;;;579325;247;24092;-79
2022/11/18 03:59:25;;;;;;;6.17;5.03;;;0.20;99.90;-0.80;99606;;;;576943;247;24105;-79
2022/11/18 04:01:53;;;;;;;6.83;5.50;;;0.20;99.90;-0.80;99602;;;;567149;250;24121;-79
2022/11/18 04:04:22;;;;;;;5.80;4.23;;;0.20;99.90;-0.70;99609;;;;561021;251;24136;-80
2022/11/18 04:07:01;;;;;;;5.57;5.07;;;0.30;99.90;-0.70;99600;;;;556804;254;24139;-78
2022/11/18 04:09:35;;;;;;;5.33;4.83;;;0.20;99.90;-0.80;99597;;;;563275;254;24155;-79
2022/11/18 04:12:04;;;;;;;10.07;5.73;;;0.30;99.90;-0.70;99601;;;;562694;254;25158;-76
2022/11/18 04:14:35;;;;;;;11.33;7.33;;;0.30;99.90;-0.70;99607;;;;562314;254;24120;-77
2022/11/18 04:17:09;;;;;;;13.67;7.33;;;0.30;99.90;-0.70;99613;;;;555929;254;24130;-79
2022/11/18 04:19:37;;;;;;;8.03;5.87;;;0.30;99.90;-0.70;99606;;;;563700;254;25192;-79
2022/11/18 04:22:06;;;;;;;9.70;6.33;;;0.30;99.90;-0.70;99607;;;;562959;253;24126;-80
2022/11/18 04:24:33;;;;;;;9.73;5.57;;;0.30;99.90;-0.70;99604;;;;562789;254;24165;-80
2022/11/18 04:27:01;;;;;;;7.30;5.27;;;0.30;99.90;-0.70;99608;;;;564486;251;24124;-77
2022/11/18 04:29:29;;;;;;;6.13;5.03;;;0.30;99.90;-0.70;99607;;;;564245;252;24179;-78
2022/11/18 04:32:01;;;;;;;8.83;5.87;;;0.30;99.90;-0.70;99601;;;;562854;254;24116;-79
2022/11/18 04:34:29;;;;;;;7.00;5.50;;;0.30;99.90;-0.70;99610;;;;562839;254;24116;-80
2022/11/18 04:36:54;;;;;;;5.73;4.90;;;0.30;99.90;-0.70;99613;;;;563139;254;24299;-81
2022/11/18 04:39:26;;;;;;;6.13;5.43;;;0.30;99.90;-0.70;99606;;;;557325;254;24151;-80
2022/11/18 04:41:55;;;;;;;6.03;5.27;;;0.30;99.90;-0.70;99600;;;;554954;254;24129;-78
2022/11/18 04:44:29;;;;;;;7.77;5.97;;;0.30;99.90;-0.60;99603;;;;564757;252;24116;-82
2022/11/18 04:47:01;;;;;;;8.70;5.60;;;0.40;99.90;-0.70;99600;;;;556356;254;24119;-81
2022/11/18 04:49:25;;;;;;;6.33;5.03;;;0.40;99.90;-0.60;99600;;;;561064;254;24124;-82
2022/11/18 04:51:54;;;;;;;6.60;5.63;;;0.40;99.90;-0.70;99607;;;;563524;254;24102;-81
2022/11/18 04:54:24;;;;;;;7.53;5.37;;;0.30;99.90;-0.60;99595;;;;556764;254;24135;-80
2022/11/18 04:56:53;;;;;;;5.97;5.30;;;0.40;99.90;-0.70;99592;;;;556191;254;24156;-78
2022/11/18 04:59:18;;;;;;;8.57;5.63;;;0.40;99.90;-0.70;99594;;;;562259;254;24176;-81
2022/11/18 05:01:50;;;;;;;5.20;4.53;;;0.40;99.90;-0.60;99601;;;;562191;254;24203;-79
2022/11/18 05:04:15;;;;;;;6.33;5.67;;;0.40;99.90;-0.70;99601;;;;555912;254;24134;-82
2022/11/18 05:06:44;;;;;;;7.20;5.40;;;0.40;99.90;-0.70;99597;;;;562865;254;24183;-80
2022/11/18 05:09:11;;;;;;;6.73;5.27;;;0.30;99.90;-0.70;99596;;;;564749;252;24144;-80
2022/11/18 05:14:28;;;;;;;5.53;5.03;;;0.30;99.90;-0.70;99608;;;;563234;254;25174;-78
2022/11/18 05:16:56;;;;;;;5.63;5.00;;;0.40;99.90;-0.70;99608;;;;564572;254;24098;-81
2022/11/18 05:19:26;;;;;;;7.47;5.30;;;0.30;99.90;-0.70;99612;;;;557446;254;24177;-83
2022/11/18 05:21:55;;;;;;;6.30;5.43;;;0.30;99.90;-0.70;99618;;;;563723;254;24162;-82
2022/11/18 05:24:22;;;;;;;6.40;5.70;;;0.30;99.90;-0.70;99611;;;;556742;254;24126;-81
2022/11/18 05:26:48;;;;;;;6.90;5.50;;;0.30;99.90;-0.70;99621;;;;557114;254;24138;-80
2022/11/18 05:29:15;;;;;;;7.07;5.03;;;0.30;99.90;-0.70;99603;;;;565772;253;24100;-80
2022/11/18 05:31:43;;;;;;;6.27;5.27;;;0.30;99.90;-0.70;99610;;;;565476;253;24120;-81
2022/11/18 05:34:11;;;;;;;6.10;5.00;;;0.40;99.90;-0.70;99613;;;;565200;251;24248;-82
2022/11/18 05:36:42;;;;;;;5.77;4.60;;;0.30;99.90;-0.70;99605;;;;564981;254;24124;-83
2022/11/18 05:39:08;;;;;;;5.77;5.20;;;0.30;99.90;-0.70;99605;;;;565432;254;24112;-83
2022/11/18 05:44:21;;;;;;;6.27;4.33;;;0.30;99.90;-0.70;99610;;;;563896;254;24119;-83
2022/11/18 05:46:49;;;;;;;5.10;4.60;;;0.40;99.90;-0.60;99616;;;;565618;252;24105;-83
2022/11/18 05:49:17;;;;;;;7.10;4.67;;;0.30;99.90;-0.70;99617;;;;564850;252;24092;-81
2022/11/18 05:51:46;;;;;;;6.53;5.43;;;0.30;99.90;-0.70;99614;;;;564433;252;24149;-79
2022/11/18 05:54:17;;;;;;;6.17;5.27;;;0.40;99.90;-0.70;99609;;;;564737;252;24127;-81
2022/11/18 05:56:43;;;;;;;5.00;4.40;;;0.30;99.90;-0.70;99624;;;;553016;254;24130;-80
2022/11/18 05:59:09;;;;;;;5.00;3.87;;;0.40;99.90;-0.70;99622;;;;556026;254;24142;-78
2022/11/18 06:01:55;;;;;;;5.40;4.70;;;0.30;99.90;-0.60;99617;;;;563780;252;24120;-78
2022/11/18 06:04:41;;;;;;;3.80;3.37;;;0.40;99.90;-0.60;99622;;;;562149;253;24227;-80
2022/11/18 06:07:12;;;;;;;4.43;2.70;;;0.40;99.90;-0.70;99630;;;;562430;254;24141;-79
2022/11/18 06:09:40;;;;;;;3.73;3.33;;;0.30;99.90;-0.60;99627;;;;555423;254;24150;-80
2022/11/18 06:12:11;;;;;;;3.20;2.90;;;0.40;99.90;-0.60;99626;;;;562178;254;24172;-80
2022/11/18 06:14:38;;;;;;;4.80;3.43;;;0.40;99.90;-0.60;99626;;;;563482;251;24147;-80
2022/11/18 06:17:06;;;;;;;5.47;4.17;;;0.40;99.90;-0.60;99635;;;;562237;254;24168;-79
2022/11/18 06:19:37;;;;;;;5.53;3.70;;;0.40;99.90;-0.60;99629;;;;561979;254;24101;-79
2022/11/18 06:22:02;;;;;;;5.57;3.60;;;0.40;99.90;-0.60;99643;;;;555460;254;24160;-80
2022/11/18 06:24:30;;;;;;;5.53;3.33;;;0.40;99.90;-0.50;99646;;;;562122;254;24159;-79
2022/11/18 06:26:58;;;;;;;4.60;3.10;;;0.50;99.90;-0.60;99642;;;;563906;252;24101;-78
2022/11/18 06:29:29;;;;;;;3.57;3.10;;;0.40;99.90;-0.50;99633;;;;563439;254;24109;-79
2022/11/18 06:31:54;;;;;;;3.50;2.93;;;0.50;99.90;-0.50;99645;;;;556220;254;24178;-78
2022/11/18 06:34:22;;;;;;;2.70;2.37;;;0.50;99.90;-0.50;99650;;;;564499;252;24165;-78
2022/11/18 06:36:50;;;;;;;2.60;2.40;;;0.50;99.90;-0.40;99648;;;;562880;254;24138;-79
2022/11/18 06:39:18;;;;;;;1.40;1.30;;;0.60;99.90;-0.40;99665;;;;564294;251;24111;-78
2022/11/18 06:41:46;;;;;;;2.77;2.30;;;0.60;99.90;-0.30;99657;;;;564606;253;24123;-78
2022/11/18 06:44:17;;;;;;;4.97;3.70;;;0.70;99.90;-0.20;99666;;;;564686;254;24112;-80
2022/11/18 06:46:58;;;;;;;10.30;5.00;;;0.80;99.90;-0.20;99664;;;;562399;254;24166;-79
2022/11/18 06:49:28;;;;;;;5.43;3.57;;;0.80;99.90;-0.20;99664;;;;564482;252;24123;-79
2022/11/18 06:51:53;;;;;;;6.00;3.87;;;0.80;99.90;-0.20;99678;;;;562376;254;24447;-78
2022/11/18 06:54:21;;;;;;;8.00;3.67;;;0.80;99.90;-0.20;99671;;;;564411;254;24126;-80
2022/11/18 06:56:49;;;;;;;3.80;3.00;;;0.80;99.90;-0.30;99662;;;;564451;254;25155;-80
2022/11/18 06:59:22;;;;;;;2.07;1.97;;;0.70;99.90;-0.30;99669;;;;564486;252;25139;-80
2022/11/18 07:01:45;;;;;;;3.00;2.70;;;0.70;99.90;-0.30;99677;;;;563995;254;24178;-79
2022/11/18 07:04:15;;;;;;;4.27;2.80;;;0.70;99.90;-0.40;99693;;;;564010;252;24139;-80
2022/11/18 07:06:40;;;;;;;2.60;1.90;;;0.70;99.90;-0.40;99680;;;;563661;254;24135;-80
2022/11/18 07:09:11;;;;;;;2.43;2.10;;;0.70;99.90;-0.40;99682;;;;563823;252;24123;-80
2022/11/18 07:11:40;;;;;;;1.97;1.53;;;0.60;99.90;-0.40;99689;;;;564033;252;24132;-78
2022/11/18 07:14:11;;;;;;;4.37;1.70;;;0.60;99.90;-0.40;99675;;;;563858;251;24150;-79
2022/11/18 07:16:40;;;;;;;2.27;1.60;;;0.70;99.90;-0.40;99675;;;;556049;254;24146;-79
2022/11/18 07:19:15;;;;;;;2.07;1.50;;;0.70;99.90;-0.30;99683;;;;556154;254;24133;-78
2022/11/18 07:21:43;;;;;;;3.17;1.43;;;0.70;99.90;-0.30;99683;;;;564218;254;24151;-79
2022/11/18 07:24:11;;;;;;;1.30;1.20;;;0.70;99.90;-0.30;99681;;;;556691;254;24131;-79
2022/11/18 07:26:36;;;;;;;1.70;1.33;;;0.70;99.90;-0.30;99686;;;;563092;254;24108;-79
2022/11/18 07:29:03;;;;;;;5.00;1.50;;;0.70;99.90;-0.30;99687;;;;565205;252;24181;-80
2022/11/18 07:31:35;;;;;;;1.77;1.57;;;0.70;99.90;-0.30;99683;;;;560462;247;24131;-80
2022/11/18 07:34:00;;;;;;;1.90;1.73;;;0.70;99.90;-0.30;99678;;;;559705;255;24202;-80
2022/11/18 07:36:28;;;;;;;3.30;1.77;;;0.80;99.90;-0.20;99705;;;;569136;253;24116;-81
2022/11/18 07:38:56;;;;;;;3.03;1.47;;;0.80;99.90;-0.20;99689;;;;564063;252;24120;-82
2022/11/18 07:41:27;;;;;;;1.30;1.20;;;0.80;99.90;-0.10;99691;;;;564895;252;24114;-82
2022/11/18 07:43:52;;;;;;;1.10;1.00;;;0.90;99.90;-0.10;99705;;;;565236;252;24135;-81
2022/11/18 07:46:31;;;;;;;1.67;0.83;;;0.90;99.90;0.00;99697;;;;569802;252;24183;-80
2022/11/18 07:49:02;;;;;;;0.87;0.87;;;0.90;99.90;0.00;99701;;;;569737;252;24122;-82
2022/11/18 07:51:33;;;;;;;0.80;0.80;;;1.00;99.90;0.00;99694;;;;565067;252;24163;-81
2022/11/18 07:53:58;;;;;;;4.20;1.07;;;1.00;99.90;0.10;99707;;;;565087;252;24202;-81
2022/11/18 07:56:26;;;;;;;0.80;0.80;;;1.10;99.90;0.10;99705;;;;569774;252;24204;-79
2022/11/18 07:58:57;;;;;;;1.17;1.07;;;1.10;99.90;0.10;99693;;;;569622;252;24197;-81
2022/11/18 08:01:27;;;;;;;0.90;0.90;;;1.20;99.90;0.20;99699;;;;561091;252;24127;-81
2022/11/18 08:03:52;;;;;;;0.80;0.80;;;1.20;99.90;0.20;99701;;;;556599;254;24134;-82
2022/11/18 08:06:21;;;;;;;0.70;0.70;;;1.20;99.90;0.20;99691;;;;569097;252;24099;-80
2022/11/18 08:08:52;;;;;;;0.97;0.67;;;1.20;99.90;0.20;99695;;;;558885;256;24188;-79
2022/11/18 08:11:17;;;;;;;1.17;0.70;;;1.30;99.90;0.20;99699;;;;551169;256;24153;-79
2022/11/18 08:13:45;;;;;;;1.70;0.80;;;1.20;99.90;0.20;99691;;;;563976;251;24185;-80
2022/11/18 08:16:13;;;;;;;2.83;1.30;;;1.30;99.90;0.20;99706;;;;577796;247;24090;-79
2022/11/18 08:18:41;;;;;;;5.00;1.40;;;1.30;99.90;0.30;99711;;;;560169;252;24187;-78
2022/11/18 08:21:12;;;;;;;2.43;1.23;;;1.30;99.90;0.20;99705;;;;564741;252;24128;-79
2022/11/18 08:23:44;;;;;;;2.83;2.03;;;1.20;99.90;0.10;99719;;;;559827;252;24113;-80
2022/11/18 08:26:15;;;;;;;3.60;2.77;;;1.20;99.90;-0.10;99726;;;;560547;252;24109;-79
2022/11/18 08:28:43;;;;;;;5.63;2.37;;;1.00;99.90;-0.20;99726;;;;564563;251;24121;-79
2022/11/18 08:31:15;;;;;;;11.97;5.87;;;0.90;99.90;-0.40;99720;;;;560661;252;24124;-79
2022/11/18 08:33:39;;;;;;;5.37;3.10;;;0.80;99.90;-0.50;99722;;;;560010;252;24146;-80
2022/11/18 08:36:09;;;;;;;4.33;2.80;;;0.70;99.90;-0.50;99722;;;;560678;252;24165;-80
2022/11/18 08:38:40;;;;;;;10.90;3.97;;;0.60;99.90;-0.50;99712;;;;559939;252;24117;-80
2022/11/18 08:41:06;;;;;;;8.10;4.37;;;0.50;99.90;-0.60;99712;;;;564438;252;24173;-80
2022/11/18 08:43:39;;;;;;;5.00;3.77;;;0.50;99.90;-0.50;99718;;;;564924;252;24100;-80
2022/11/18 08:46:03;;;;;;;5.67;4.10;;;0.50;99.90;-0.30;99705;;;;560621;252;24151;-79
2022/11/18 08:48:35;;;;;;;2.47;2.07;;;0.90;99.90;-0.10;99717;;;;559091;252;24112;-79
2022/11/18 08:51:00;;;;;;;2.83;1.93;;;0.80;99.90;0.10;99710;;;;570055;250;24112;-80
2022/11/18 08:53:28;;;;;;;4.43;2.60;;;1.10;99.90;0.20;99725;;;;570517;249;24119;-79
2022/11/18 08:55:59;;;;;;;3.33;2.23;;;1.20;99.90;0.50;99727;;;;570307;252;24142;-79
2022/11/18 08:58:27;;;;;;;6.63;4.03;;;1.50;99.90;0.60;99735;;;;562241;252;24161;-78
2022/11/18 09:00:58;;;;;;;7.33;4.03;;;1.70;99.90;0.70;99723;;;;561005;252;24110;-79
2022/11/18 09:03:23;;;;;;;4.40;2.70;;;1.80;99.90;0.80;99719;;;;571257;252;24108;-78
2022/11/18 09:05:54;;;;;;;4.00;2.77;;;1.90;99.90;0.90;99724;;;;561563;252;24115;-81
2022/11/18 09:08:20;;;;;;;4.40;2.80;;;2.00;99.90;0.90;99723;;;;565663;250;24243;-81
2022/11/18 09:10:49;;;;;;;2.67;1.93;;;2.00;99.90;0.90;99720;;;;570078;252;24145;-81
2022/11/18 09:13:18;;;;;;;3.87;1.77;;;2.00;99.90;0.90;99720;;;;565483;252;24195;-79
2022/11/18 09:15:42;;;;;;;3.33;2.53;;;2.00;99.90;1.10;99720;;;;565891;250;24136;-79
2022/11/18 09:18:10;;;;;;;2.57;1.87;;;2.10;99.90;1.10;99715;;;;570360;250;24111;-81
2022/11/18 09:20:42;;;;;;;3.37;2.33;;;2.20;99.90;1.00;99711;;;;559911;252;24158;-80
2022/11/18 09:23:09;;;;;;;3.83;2.63;;;2.10;99.90;0.80;99711;;;;570322;252;24137;-79
2022/11/18 09:25:37;;;;;;;4.23;2.40;;;1.90;99.90;0.70;99716;;;;569776;252;24104;-79
2022/11/18 09:28:05;;;;;;;2.23;2.03;;;1.80;99.90;0.70;99719;;;;560320;252;24118;-79
2022/11/18 09:30:34;;;;;;;5.83;3.10;;;1.80;99.90;0.70;99702;;;;568477;249;24101;-78
2022/11/18 09:33:02;;;;;;;2.40;2.20;;;1.70;99.90;0.60;99709;;;;569086;252;24165;-77
2022/11/18 09:35:31;;;;;;;3.83;2.87;;;1.70;99.90;0.60;99713;;;;569158;252;24176;-80
2022/11/18 09:37:57;;;;;;;3.70;2.33;;;1.70;99.90;0.60;99708;;;;559618;252;24114;-79
2022/11/18 09:40:29;;;;;;;7.97;2.80;;;1.60;99.90;0.60;99709;;;;569499;252;24120;-79
2022/11/18 09:43:20;;;;;;;2.87;2.57;;;1.60;99.90;0.50;99697;;;;564415;252;24135;-80
2022/11/18 09:45:48;;;;;;;7.37;1.87;;;1.50;99.90;0.40;99702;;;;562806;253;24422;-79
2022/11/18 09:48:16;;;;;;;3.90;2.17;;;1.40;99.90;0.40;99703;;;;557152;256;24130;-79
2022/11/18 09:50:47;;;;;;;1.77;1.57;;;1.60;99.90;0.60;99711;;;;563442;250;24147;-78
2022/11/18 09:53:23;;;;;;;1.73;1.60;;;1.50;99.90;0.80;99708;;;;557159;251;24108;-79
2022/11/18 09:55:54;;;;;;;1.95;1.75;;;1.70;99.90;0.90;99706;;;;564297;251;35364;-79
2022/11/18 09:58:28;;;;;;;0.60;0.60;;;2.00;99.90;1.00;99708;;;;569730;249;24150;-79
2022/11/18 10:01:00;;;;;;;3.47;2.07;;;2.00;99.90;1.00;99708;;;;568932;252;24118;-78
2022/11/18 10:03:31;;;;;;;3.57;3.27;;;2.10;99.90;1.20;99706;;;;559442;251;24170;-78
2022/11/18 10:06:18;;;;;;;8.50;4.73;;;2.10;99.90;1.20;99713;;;;560047;251;24174;-78
2022/11/18 10:09:05;;;;;;;8.57;3.27;;;2.10;99.90;1.30;99711;;;;560836;252;24136;-78
2022/11/18 10:11:34;;;;;;;5.03;2.40;;;2.30;99.90;1.40;99701;;;;566278;250;24120;-78
2022/11/18 10:14:14;;;;;;;1.80;1.70;;;2.40;99.90;1.50;99699;;;;558258;252;26264;-79
2022/11/18 10:16:54;;;;;;;2.03;1.90;;;2.40;99.90;1.60;99702;;;;565518;251;24115;-81
2022/11/18 10:19:32;;;;;;;2.10;1.63;;;2.60;99.90;1.70;99709;;;;561664;252;24123;-79
2022/11/18 10:22:09;;;;;;;1.83;1.73;;;2.60;99.90;1.60;99712;;;;561865;252;24156;-80
2022/11/18 10:24:50;;;;;;;2.20;1.57;;;2.70;99.90;1.60;99723;;;;570032;252;24145;-78
2022/11/18 10:27:22;;;;;;;2.57;1.37;;;2.60;99.90;1.50;99719;;;;565193;251;24110;-78
2022/11/18 10:29:52;;;;;;;1.60;1.50;;;2.50;99.90;1.40;99724;;;;569360;249;24122;-78
2022/11/18 10:32:23;;;;;;;1.30;1.20;;;2.40;99.90;1.20;99729;;;;565462;252;24146;-81
2022/11/18 10:34:59;;;;;;;1.60;1.03;;;2.30;99.90;1.20;99718;;;;560974;252;24131;-79
2022/11/18 10:37:32;;;;;;;1.30;1.20;;;2.20;99.90;1.10;99720;;;;561501;252;24112;-79
2022/11/18 10:40:00;;;;;;;1.60;1.50;;;2.20;99.90;1.20;99733;;;;569725;252;24150;-78
2022/11/18 10:42:40;;;;;;;1.30;1.20;;;2.20;99.90;1.30;99738;;;;561143;252;24120;-79
2022/11/18 10:45:26;;;;;;;1.70;1.60;;;2.30;99.90;1.30;99730;;;;560692;252;24138;-79
2022/11/18 10:48:06;;;;;;;1.60;1.50;;;2.40;99.90;1.30;99727;;;;565666;251;24104;-80
2022/11/18 10:50:46;;;;;;;1.30;1.20;;;2.40;99.90;1.40;99728;;;;565121;252;24106;-80
2022/11/18 10:53:30;;;;;;;1.50;1.40;;;2.40;99.90;1.50;99729;;;;560590;252;24130;-79
2022/11/18 10:55:57;;;;;;;1.40;1.30;;;2.50;99.90;1.50;99733;;;;564576;252;24187;-80
2022/11/18 10:58:25;;;;;;;1.57;1.47;;;2.50;99.90;1.50;99739;;;;560308;252;24116;-79
2022/11/18 11:00:53;;;;;;;3.40;2.93;;;2.50;99.90;1.50;99736;;;;568773;252;25177;-79
2022/11/18 11:03:26;;;;;;;6.00;2.70;;;2.50;99.90;1.50;99738;;;;560628;252;24147;-80
2022/11/18 11:06:32;;;;;;;2.10;1.90;;;2.50;99.90;1.50;99745;;;;564685;252;24102;-79
2022/11/18 11:09:00;;;;;;;2.90;2.57;;;2.50;99.90;1.40;99743;;;;560783;252;24152;-78
2022/11/18 11:11:33;;;;;;;1.37;1.37;;;2.40;99.90;1.40;99754;;;;559974;252;24135;-79
2022/11/18 11:14:20;;;;;;;2.60;1.93;;;2.40;99.90;1.30;99736;;;;559651;251;24180;-78
2022/11/18 11:17:08;;;;;;;2.33;1.90;;;2.20;99.90;1.20;99735;;;;559905;251;24111;-80
2022/11/18 11:20:00;;;;;;;3.20;2.50;;;2.10;99.90;1.20;99742;;;;565130;251;24236;-79
2022/11/18 11:22:28;;;;;;;3.53;2.50;;;2.20;99.90;1.30;99738;;;;565161;252;24154;-80
2022/11/18 11:24:59;;;;;;;5.30;2.67;;;2.30;99.90;1.40;99739;;;;565019;252;24167;-80
2022/11/18 11:27:43;;;;;;;4.20;2.97;;;2.30;99.90;1.30;99740;;;;569077;250;24124;-79
2022/11/18 11:30:16;;;;;;;9.93;4.87;;;2.30;99.90;1.30;99739;;;;564790;252;24138;-80
2022/11/18 11:33:22;;;;;;;3.17;2.87;;;2.30;99.90;1.40;99745;;;;568727;252;24112;-79
2022/11/18 11:35:50;;;;;;;4.83;2.93;;;2.30;99.90;1.20;99753;;;;564780;252;24136;-79
2022/11/18 11:38:39;;;;;;;4.50;2.20;;;2.20;99.90;1.20;99746;;;;564021;251;24142;-81
2022/11/18 11:41:21;;;;;;;4.00;2.27;;;2.20;99.90;1.10;99745;;;;569466;252;24135;-79
2022/11/18 11:44:03;;;;;;;2.90;1.80;;;2.10;99.90;1.00;99749;;;;564732;252;24136;-78
2022/11/18 11:46:36;;;;;;;5.43;2.40;;;2.00;99.90;0.90;99739;;;;565144;252;25158;-81
2022/11/18 11:49:24;;;;;;;1.97;1.50;;;1.90;99.90;0.90;99760;;;;565169;251;24169;-80
2022/11/18 11:51:54;;;;;;;1.57;1.47;;;1.90;99.90;0.80;99747;;;;565644;252;24167;-79
2022/11/18 11:54:40;;;;;;;1.73;1.63;;;1.80;99.90;0.70;99751;;;;568824;250;24111;-81